Time;durP1;ratioP1;P1;durP2;ratioP2;P2;SDS_P1;SDS_P2;PMS_P1;PMS_P2;Temp;Humidity;BMP_temperature;BMP_pressure;BME280_temperature;BME280_humidity;BME280_pressure;Samples;Min_cycle;Max_cycle;Signal;HPM_P1;HPM_P2
2022/03/26 00:00:08;;;;;;;122.95;44.80;;;;;;;16.95;39.23;103253.56;5016333;28;20033;-90
2022/03/26 00:02:34;;;;;;;82.60;44.08;;;;;;;16.94;39.24;103251.94;5033683;28;20026;-92
2022/03/26 00:05:00;;;;;;;186.38;48.35;;;;;;;16.88;39.49;103251.16;5033858;28;20055;-86
2022/03/26 00:07:26;;;;;;;90.63;46.25;;;;;;;16.86;39.08;103256.16;5034386;28;20021;-93
2022/03/26 00:09:52;;;;;;;64.05;41.72;;;;;;;16.81;39.45;103260.91;5033929;28;20104;-71
2022/03/26 00:12:17;;;;;;;113.88;47.40;;;;;;;16.70;39.48;103260.22;5033515;28;20028;-92
2022/03/26 00:14:43;;;;;;;119.82;45.22;;;;;;;16.73;39.50;103253.28;5033336;28;20026;-72
2022/03/26 00:17:09;;;;;;;131.93;46.22;;;;;;;16.69;39.58;103263.22;5033313;28;20029;-91
2022/03/26 00:19:35;;;;;;;80.90;42.25;;;;;;;16.67;39.20;103263.53;5033697;28;20029;-93
2022/03/26 00:22:02;;;;;;;135.70;45.38;;;;;;;16.56;39.45;103260.06;5033668;28;20476;-92
2022/03/26 00:24:28;;;;;;;129.75;46.30;;;;;;;16.51;39.57;103273.91;5033463;28;20057;-73
2022/03/26 00:26:53;;;;;;;108.65;44.33;;;;;;;16.47;39.31;103270.06;5033496;28;20123;-92
2022/03/26 00:29:20;;;;;;;64.03;42.15;;;;;;;16.46;39.31;103273.13;5032923;28;20029;-72
2022/03/26 00:31:45;;;;;;;63.45;43.03;;;;;;;16.43;39.37;103260.75;5032450;28;20029;-86
2022/03/26 00:34:12;;;;;;;60.00;41.47;;;;;;;16.43;39.33;103266.28;5032486;28;20515;-71
2022/03/26 00:36:39;;;;;;;47.03;37.88;;;;;;;16.43;39.09;103263.50;5032802;28;20025;-72
2022/03/26 00:39:06;;;;;;;44.53;37.35;;;;;;;16.31;39.13;103254.78;5032869;28;20032;-72
2022/03/26 00:41:32;;;;;;;44.58;36.08;;;;;;;16.29;39.23;103257.03;5032705;28;20087;-72
2022/03/26 00:43:58;;;;;;;44.92;36.63;;;;;;;16.31;39.10;103252.03;5032596;28;20541;-72
2022/03/26 00:46:24;;;;;;;47.97;36.92;;;;;;;16.24;39.31;103257.88;5032844;28;20034;-71
2022/03/26 00:48:50;;;;;;;47.03;36.72;;;;;;;16.26;39.11;103254.84;5032507;28;20410;-72
2022/03/26 00:51:16;;;;;;;43.55;35.50;;;;;;;16.16;39.24;103238.38;5032523;28;20025;-71
2022/03/26 00:53:43;;;;;;;53.28;41.58;;;;;;;16.14;39.28;103241.44;5032431;28;20034;-72
2022/03/26 00:56:09;;;;;;;45.80;36.58;;;;;;;16.12;39.18;103246.44;5032285;28;20037;-72
2022/03/26 00:58:35;;;;;;;46.78;36.10;;;;;;;16.07;39.05;103244.53;5032427;28;20100;-72
2022/03/26 01:01:01;;;;;;;48.00;37.85;;;;;;;16.08;38.93;103246.16;5031795;28;20033;-72
2022/03/26 01:03:26;;;;;;;57.38;41.63;;;;;;;16.08;39.11;103246.16;5032190;28;20061;-72
2022/03/26 01:05:52;;;;;;;56.13;41.17;;;;;;;16.08;39.20;103254.44;5032359;28;20064;-71
2022/03/26 01:08:18;;;;;;;48.22;37.25;;;;;;;16.06;39.31;103248.41;5032268;28;20032;-72
2022/03/26 01:10:44;;;;;;;46.90;37.17;;;;;;;16.06;39.25;103242.88;5032326;28;20029;-72
2022/03/26 01:13:11;;;;;;;43.63;33.20;;;;;;;16.02;39.21;103244.59;5032268;28;20029;-71
2022/03/26 01:15:37;;;;;;;41.38;32.85;;;;;;;15.95;39.32;103232.25;5032540;28;20072;-71
2022/03/26 01:18:03;;;;;;;43.28;34.75;;;;;;;15.94;39.30;103242.44;5032211;28;20069;-71
2022/03/26 01:20:29;;;;;;;44.72;35.95;;;;;;;15.88;39.25;103238.09;5032524;28;20037;-72
2022/03/26 01:22:55;;;;;;;49.85;37.80;;;;;;;15.84;39.29;103237.00;5032166;28;20029;-71
2022/03/26 01:25:21;;;;;;;57.25;40.55;;;;;;;15.86;39.43;103243.06;5032198;28;20087;-72
2022/03/26 01:27:47;;;;;;;58.38;42.92;;;;;;;15.91;39.26;103243.03;5032164;28;20403;-72
2022/03/26 01:30:13;;;;;;;48.45;37.08;;;;;;;15.95;39.20;103243.28;5032078;28;20059;-72
2022/03/26 01:32:38;;;;;;;52.13;36.97;;;;;;;15.87;39.35;103241.97;5014222;28;20380;-72
2022/03/26 01:35:05;;;;;;;48.83;36.35;;;;;;;15.86;39.29;103242.22;5032155;28;20032;-72
2022/03/26 01:37:30;;;;;;;52.15;36.70;;;;;;;15.87;39.09;103243.88;5032036;28;20033;-71
2022/03/26 01:39:56;;;;;;;41.50;33.92;;;;;;;15.80;39.23;103239.53;5032033;28;20040;-72
2022/03/26 01:42:22;;;;;;;45.47;34.33;;;;;;;15.77;39.42;103231.81;5032019;28;20105;-71
2022/03/26 01:44:47;;;;;;;45.42;36.13;;;;;;;15.77;39.30;103233.75;5032023;28;20076;-72
2022/03/26 01:47:13;;;;;;;46.50;36.97;;;;;;;15.77;39.17;103236.53;5031962;28;20025;-72
2022/03/26 01:49:39;;;;;;;46.72;35.85;;;;;;;15.80;39.07;103242.28;5032135;28;20033;-71
2022/03/26 01:52:07;;;;;;;40.42;33.40;;;;;;;15.75;39.42;103247.03;5031986;28;20065;-72
2022/03/26 01:54:33;;;;;;;47.13;34.33;;;;;;;15.71;39.17;103240.41;5031981;28;20037;-72
2022/03/26 01:56:59;;;;;;;42.50;33.50;;;;;;;15.70;39.24;103238.78;5031806;28;20037;-71
2022/03/26 01:59:26;;;;;;;52.90;33.65;;;;;;;15.67;38.88;103237.44;5031744;28;20105;-71
2022/03/26 02:01:52;;;;;;;41.03;30.52;;;;;;;15.56;39.08;103230.28;5031824;28;20146;-72
2022/03/26 02:04:17;;;;;;;39.50;31.88;;;;;;;15.59;38.94;103228.91;5031918;28;20087;-72
2022/03/26 02:06:43;;;;;;;39.70;31.17;;;;;;;15.55;38.85;103232.22;5031833;28;20028;-72
2022/03/26 02:09:12;;;;;;;41.22;32.65;;;;;;;15.50;39.19;103240.56;5014112;28;20079;-71
2022/03/26 02:11:40;;;;;;;41.53;32.55;;;;;;;15.49;38.92;103227.88;5031769;28;20451;-71
2022/03/26 02:14:08;;;;;;;40.30;31.70;;;;;;;15.53;38.94;103222.63;5034580;28;20017;-71
2022/03/26 02:16:35;;;;;;;61.03;37.13;;;;;;;15.41;39.15;103233.16;5017550;28;20079;-71
2022/03/26 02:19:00;;;;;;;42.58;32.65;;;;;;;15.43;39.21;103233.72;5035276;28;20039;-72
2022/03/26 02:21:27;;;;;;;44.10;32.20;;;;;;;15.39;39.01;103238.97;5035228;28;20021;-72
2022/03/26 02:23:53;;;;;;;40.95;32.17;;;;;;;15.39;38.82;103236.19;5017500;28;20488;-71
2022/03/26 02:26:21;;;;;;;38.55;31.70;;;;;;;15.31;39.01;103239.56;5017359;28;20061;-72
2022/03/26 02:28:49;;;;;;;40.80;31.75;;;;;;;15.33;39.01;103240.09;5017326;28;20030;-71
2022/03/26 02:31:15;;;;;;;39.65;31.30;;;;;;;15.29;38.86;103236.28;5035084;28;20022;-71
2022/03/26 02:33:42;;;;;;;49.35;33.47;;;;;;;15.27;38.94;103236.56;5034973;28;20045;-71
2022/03/26 02:36:09;;;;;;;46.90;34.10;;;;;;;15.29;39.10;103229.94;5035008;28;20061;-72
2022/03/26 02:38:36;;;;;;;45.22;35.40;;;;;;;15.29;39.03;103222.50;5034948;28;20018;-72
2022/03/26 02:41:02;;;;;;;47.28;35.13;;;;;;;15.29;39.12;103230.78;5017139;28;20033;-72
2022/03/26 02:43:28;;;;;;;45.53;34.92;;;;;;;15.33;39.22;103229.06;5016993;28;20124;-72
2022/03/26 02:45:54;;;;;;;44.42;33.95;;;;;;;15.32;39.13;103227.44;5034772;28;20128;-72
2022/03/26 02:48:19;;;;;;;43.83;34.05;;;;;;;15.32;39.10;103230.19;5033388;28;20049;-71
2022/03/26 02:50:46;;;;;;;45.40;36.50;;;;;;;15.34;39.08;103224.38;5016987;28;20036;-71
2022/03/26 02:53:12;;;;;;;44.25;35.03;;;;;;;15.34;39.11;103228.00;5034576;28;20029;-72
2022/03/26 02:55:38;;;;;;;47.42;36.50;;;;;;;15.32;39.57;103226.59;5034654;28;20113;-71
2022/03/26 02:58:05;;;;;;;43.83;33.55;;;;;;;15.34;39.20;103219.72;5034651;28;20111;-71
2022/03/26 03:00:31;;;;;;;45.55;36.42;;;;;;;15.33;39.14;103225.50;5034507;28;20040;-72
2022/03/26 03:02:57;;;;;;;51.85;37.03;;;;;;;15.30;39.03;103226.06;5034472;28;20017;-72
2022/03/26 03:05:22;;;;;;;47.53;36.83;;;;;;;15.30;39.08;103232.41;5034447;28;20029;-72
2022/03/26 03:07:48;;;;;;;49.90;36.58;;;;;;;15.31;38.78;103227.72;5034654;28;20025;-71
2022/03/26 03:10:18;;;;;;;49.00;35.80;;;;;;;15.36;39.18;103220.25;5033042;28;20442;-71
2022/03/26 03:12:44;;;;;;;47.30;37.17;;;;;;;15.29;39.05;103225.25;5034286;28;20053;-72
2022/03/26 03:15:11;;;;;;;46.97;34.67;;;;;;;15.26;39.06;103225.81;5034221;28;20029;-72
2022/03/26 03:17:38;;;;;;;48.33;36.20;;;;;;;15.21;39.32;103217.59;5034243;28;20064;-72
2022/03/26 03:20:05;;;;;;;48.38;36.88;;;;;;;15.22;39.04;103227.50;5034163;28;20387;-72
2022/03/26 03:22:31;;;;;;;45.70;36.42;;;;;;;15.19;39.15;103231.66;5033050;28;20461;-72
2022/03/26 03:24:56;;;;;;;43.42;33.35;;;;;;;15.19;39.00;103228.09;5033228;28;20025;-72
2022/03/26 03:27:22;;;;;;;41.88;34.13;;;;;;;15.17;39.08;103236.59;5034082;28;20411;-72
2022/03/26 03:29:48;;;;;;;42.67;34.05;;;;;;;15.16;38.96;103237.72;5033932;28;20458;-71
2022/03/26 03:32:14;;;;;;;44.00;33.65;;;;;;;15.13;38.89;103235.53;5032714;28;20021;-72
2022/03/26 03:34:40;;;;;;;41.40;33.03;;;;;;;15.09;38.90;103231.69;5033749;28;20400;-72
2022/03/26 03:37:06;;;;;;;43.22;34.05;;;;;;;15.09;38.69;103230.88;5032581;28;20025;-72
2022/03/26 03:39:32;;;;;;;45.20;31.48;;;;;;;15.04;38.95;103233.63;5033810;28;20075;-72
2022/03/26 03:41:58;;;;;;;46.47;32.35;;;;;;;15.02;38.91;103235.84;5033804;28;20025;-72
2022/03/26 03:44:25;;;;;;;44.80;34.15;;;;;;;14.97;39.12;103234.78;5033941;28;20025;-71
2022/03/26 03:46:51;;;;;;;37.00;30.25;;;;;;;15.11;38.69;103240.47;5033708;28;20483;-72
2022/03/26 03:49:17;;;;;;;39.47;31.92;;;;;;;15.36;38.00;103235.97;5032847;28;20037;-72
2022/03/26 03:51:43;;;;;;;43.97;32.70;;;;;;;15.38;38.07;103228.22;5019017;28;20105;-72
2022/03/26 03:54:08;;;;;;;39.30;30.88;;;;;;;15.29;37.99;103236.28;5013630;28;20065;-72
2022/03/26 03:56:35;;;;;;;40.53;30.63;;;;;;;15.33;37.95;103236.50;5013777;28;20057;-72
2022/03/26 03:59:00;;;;;;;38.08;29.52;;;;;;;15.10;38.29;103235.25;5012397;28;20037;-71
2022/03/26 04:01:26;;;;;;;37.15;30.52;;;;;;;15.20;38.18;103232.47;5013682;28;20021;-72
2022/03/26 04:03:52;;;;;;;37.33;29.88;;;;;;;15.20;38.07;103238.00;5013609;28;20026;-72
2022/03/26 04:06:18;;;;;;;34.58;30.05;;;;;;;15.19;37.90;103239.91;5013572;28;20026;-72
2022/03/26 04:08:44;;;;;;;35.63;29.60;;;;;;;15.16;37.91;103242.41;5013460;28;20065;-71
2022/03/26 04:11:10;;;;;;;36.78;30.45;;;;;;;15.14;38.03;103237.19;5012301;28;20509;-72
2022/03/26 04:13:35;;;;;;;38.45;30.50;;;;;;;15.22;37.77;103244.03;5011841;28;20025;-72
2022/03/26 04:16:01;;;;;;;38.20;31.48;;;;;;;14.88;38.27;103239.22;5012131;28;20060;-72
2022/03/26 04:18:27;;;;;;;35.13;29.20;;;;;;;14.76;38.57;103244.22;5013298;28;20421;-72
2022/03/26 04:20:54;;;;;;;39.53;32.58;;;;;;;14.71;38.39;103241.50;5013333;28;20032;-71
2022/03/26 04:23:20;;;;;;;36.83;31.13;;;;;;;14.70;38.67;103243.41;5013298;28;20587;-71
2022/03/26 04:25:46;;;;;;;35.13;29.40;;;;;;;14.64;38.75;103233.53;5013144;28;20048;-72
2022/03/26 04:28:12;;;;;;;33.25;28.02;;;;;;;14.57;38.70;103240.44;5013158;28;20030;-72
2022/03/26 04:30:38;;;;;;;36.58;29.70;;;;;;;14.54;38.94;103246.50;5011792;28;20034;-72
2022/03/26 04:33:03;;;;;;;48.05;29.77;;;;;;;14.51;38.88;103242.38;5011668;28;20045;-72
2022/03/26 04:35:31;;;;;;;38.47;30.63;;;;;;;14.59;38.75;103243.75;5012983;28;20676;-71
2022/03/26 04:37:57;;;;;;;34.67;28.45;;;;;;;14.58;38.77;103240.13;5011762;28;20112;-72
2022/03/26 04:40:25;;;;;;;32.70;27.88;;;;;;;14.76;37.89;103248.91;5013334;28;20105;-71
2022/03/26 04:42:51;;;;;;;35.65;27.10;;;;;;;14.79;38.04;103248.34;5012945;28;20396;-72
2022/03/26 04:45:16;;;;;;;36.67;27.27;;;;;;;14.75;38.12;103253.59;5012956;28;20034;-72
2022/03/26 04:47:42;;;;;;;40.08;30.40;;;;;;;14.59;38.35;103250.06;5012925;28;20033;-71
2022/03/26 04:50:09;;;;;;;39.72;29.50;;;;;;;14.57;38.48;103251.44;5012790;28;20029;-72
2022/03/26 04:52:35;;;;;;;37.72;30.65;;;;;;;14.63;38.40;103245.63;5012875;28;20030;-73
2022/03/26 04:55:03;;;;;;;36.38;29.45;;;;;;;14.59;38.40;103243.75;5011512;28;20068;-72
2022/03/26 04:57:28;;;;;;;41.45;30.85;;;;;;;14.72;38.10;103237.63;5012957;28;20396;-72
2022/03/26 04:59:54;;;;;;;43.33;31.45;;;;;;;14.80;37.89;103238.97;5012789;28;20038;-72
2022/03/26 05:02:20;;;;;;;41.33;31.13;;;;;;;14.61;38.54;103247.03;5011430;28;20088;-72
2022/03/26 05:04:45;;;;;;;46.65;34.50;;;;;;;14.48;38.63;103247.59;5012674;28;20034;-71
2022/03/26 05:09:55;;;;;;;47.63;32.92;;;;;;;14.69;38.20;103254.72;5012624;28;20036;-72
2022/03/26 05:12:21;;;;;;;40.40;31.45;;;;;;;14.76;38.07;103255.25;5012821;28;20392;-72
2022/03/26 05:14:47;;;;;;;43.60;32.90;;;;;;;14.79;37.85;103249.16;5012788;28;20022;-72
2022/03/26 05:17:13;;;;;;;43.10;32.75;;;;;;;14.76;38.03;103252.50;5012591;28;20104;-72
2022/03/26 05:19:39;;;;;;;48.20;35.25;;;;;;;14.39;38.61;103250.91;5012560;28;20044;-72
2022/03/26 05:22:05;;;;;;;45.40;32.88;;;;;;;14.33;38.75;103254.75;5012633;28;20496;-71
2022/03/26 05:24:30;;;;;;;50.22;34.75;;;;;;;14.33;38.83;103263.00;5012571;28;20026;-72
2022/03/26 05:26:56;;;;;;;50.22;34.67;;;;;;;14.32;38.96;103268.78;5012578;28;20017;-71
2022/03/26 05:29:21;;;;;;;46.55;34.83;;;;;;;14.63;38.29;103256.66;5012432;28;20029;-72
2022/03/26 05:31:47;;;;;;;43.78;34.22;;;;;;;14.71;38.08;103258.81;5012460;28;20072;-72
2022/03/26 05:34:14;;;;;;;42.92;31.10;;;;;;;14.70;38.02;103273.69;5012353;28;20038;-72
2022/03/26 05:36:39;;;;;;;48.33;34.85;;;;;;;14.58;38.30;103258.56;5012346;28;20041;-72
2022/03/26 05:39:05;;;;;;;58.58;38.88;;;;;;;14.56;38.19;103261.63;5012388;28;20038;-72
2022/03/26 05:41:32;;;;;;;57.33;40.67;;;;;;;14.43;38.51;103265.75;5012353;28;20083;-71
2022/03/26 05:44:00;;;;;;;55.10;37.90;;;;;;;14.46;38.61;103269.91;5012307;28;20026;-72
2022/03/26 05:46:26;;;;;;;49.13;36.53;;;;;;;14.60;38.41;103270.16;5012353;28;20034;-72
2022/03/26 05:48:52;;;;;;;52.55;37.42;;;;;;;14.66;38.24;103266.25;5014864;28;20033;-72
2022/03/26 05:51:17;;;;;;;59.63;40.90;;;;;;;14.69;38.34;103265.72;5016197;28;20034;-72
2022/03/26 05:53:44;;;;;;;56.75;37.75;;;;;;;14.59;38.62;103274.00;5016055;28;20111;-72
2022/03/26 05:56:10;;;;;;;47.65;35.03;;;;;;;14.70;38.35;103272.88;5016023;28;20074;-71
2022/03/26 05:58:35;;;;;;;52.47;37.22;;;;;;;14.44;38.99;103274.84;5015998;28;20057;-72
2022/03/26 06:01:01;;;;;;;52.78;38.22;;;;;;;14.37;39.03;103279.78;5016062;28;20026;-72
2022/03/26 06:03:27;;;;;;;49.72;35.47;;;;;;;14.30;39.18;103280.06;5016103;28;20032;-71
2022/03/26 06:05:53;;;;;;;56.28;35.47;;;;;;;14.28;39.19;103281.44;5016056;28;20465;-71
2022/03/26 06:08:19;;;;;;;55.05;38.05;;;;;;;14.29;38.86;103292.19;5015861;28;20032;-72
2022/03/26 06:10:44;;;;;;;49.10;35.22;;;;;;;13.96;39.85;103289.97;5016090;28;20036;-75
2022/03/26 06:13:10;;;;;;;47.17;34.45;;;;;;;13.85;39.98;103289.13;5016045;28;20026;-72
2022/03/26 06:15:36;;;;;;;51.42;35.28;;;;;;;13.67;40.48;103287.72;5016057;28;20156;-71
2022/03/26 06:18:03;;;;;;;54.80;35.15;;;;;;;13.71;40.32;103299.84;5015650;28;20052;-72
2022/03/26 06:20:29;;;;;;;44.88;33.03;;;;;;;13.70;40.41;103289.94;5015659;28;20038;-77
2022/03/26 06:22:55;;;;;;;49.05;33.95;;;;;;;13.71;40.58;103305.31;5015594;28;20041;-71
2022/03/26 06:25:23;;;;;;;49.80;35.45;;;;;;;13.70;40.43;103300.94;5015444;28;20030;-71
2022/03/26 06:27:49;;;;;;;54.15;35.15;;;;;;;13.77;40.17;103315.25;5015404;28;20037;-71
2022/03/26 06:30:16;;;;;;;47.08;33.83;;;;;;;13.73;40.32;103314.13;5015361;28;20026;-71
2022/03/26 06:32:42;;;;;;;47.97;35.22;;;;;;;13.88;40.03;103314.13;5015198;28;20171;-71
2022/03/26 06:35:08;;;;;;;49.42;34.85;;;;;;;13.80;40.29;103314.69;5015308;28;20026;-70
2022/03/26 06:37:34;;;;;;;50.55;34.08;;;;;;;13.79;40.54;103312.22;5015258;28;20024;-71
2022/03/26 06:40:00;;;;;;;49.53;35.58;;;;;;;13.77;40.24;103323.47;5013877;28;20029;-71
2022/03/26 06:42:26;;;;;;;51.78;34.83;;;;;;;13.74;40.57;103321.25;5013949;28;20029;-71
2022/03/26 06:44:58;;;;;;;49.75;33.78;;;;;;;13.85;40.19;103325.69;5014992;28;20031;-71
2022/03/26 06:47:28;;;;;;;47.88;34.03;;;;;;;13.89;40.17;103323.22;5015193;28;20030;-72
2022/03/26 06:49:57;;;;;;;45.85;33.38;;;;;;;13.87;40.29;103326.25;5015274;28;20030;-71
2022/03/26 06:52:24;;;;;;;53.63;33.40;;;;;;;13.88;40.52;103327.06;5015159;28;20032;-72
2022/03/26 06:54:50;;;;;;;51.85;32.55;;;;;;;13.97;40.33;103336.41;5014976;28;20061;-72
2022/03/26 06:57:15;;;;;;;42.20;32.78;;;;;;;14.01;40.24;103329.28;5014892;28;20534;-71
2022/03/26 06:59:41;;;;;;;42.05;31.15;;;;;;;14.02;40.35;103339.19;5014489;28;20030;-92
2022/03/26 07:02:07;;;;;;;43.33;31.63;;;;;;;14.10;40.34;103340.56;5014073;28;20121;-72
2022/03/26 07:04:32;;;;;;;35.88;28.63;;;;;;;14.12;40.32;103338.34;5015076;28;20025;-72
2022/03/26 07:06:58;;;;;;;45.22;33.00;;;;;;;14.18;40.26;103341.94;5014642;28;20030;-71
2022/03/26 07:09:24;;;;;;;45.67;33.30;;;;;;;14.18;40.36;103351.00;5013843;28;20030;-94
2022/03/26 07:11:50;;;;;;;43.78;32.55;;;;;;;14.28;40.29;103348.28;5015439;28;20034;-74
2022/03/26 07:14:16;;;;;;;47.78;34.35;;;;;;;14.34;40.26;103352.66;5015385;28;20030;-80
2022/03/26 07:16:43;;;;;;;49.97;35.13;;;;;;;14.47;40.19;103350.50;5015701;28;20034;-72
2022/03/26 07:19:09;;;;;;;46.13;33.03;;;;;;;14.51;40.23;103357.94;5015090;28;20435;-72
2022/03/26 07:21:36;;;;;;;48.45;34.53;;;;;;;14.56;40.20;103357.09;5015275;28;20026;-72
2022/03/26 07:24:02;;;;;;;53.47;35.38;;;;;;;14.68;40.46;103358.47;5016015;28;20053;-92
2022/03/26 07:26:28;;;;;;;48.60;35.47;;;;;;;14.77;40.30;103361.47;5015476;28;20029;-79
2022/03/26 07:28:55;;;;;;;43.13;33.65;;;;;;;14.85;40.51;103360.91;5014440;28;20434;-72
2022/03/26 07:31:22;;;;;;;48.08;35.10;;;;;;;14.91;40.62;103362.53;5014387;28;20080;-71
2022/03/26 07:33:47;;;;;;;50.90;36.58;;;;;;;15.02;40.51;103365.25;5014978;28;20053;-71
2022/03/26 07:36:13;;;;;;;47.45;34.92;;;;;;;15.12;40.67;103352.31;5015169;28;20025;-71
2022/03/26 07:38:38;;;;;;;56.85;34.17;;;;;;;15.21;40.54;103366.31;5014687;28;20526;-81
2022/03/26 07:41:04;;;;;;;44.78;33.10;;;;;;;15.26;40.79;103360.78;5014825;28;20038;-92
2022/03/26 07:43:30;;;;;;;52.47;35.53;;;;;;;15.36;40.86;103359.94;5015379;28;20021;-70
2022/03/26 07:45:55;;;;;;;54.42;38.60;;;;;;;15.50;40.88;103363.72;5014130;28;20029;-71
2022/03/26 07:48:21;;;;;;;49.05;36.35;;;;;;;15.66;40.90;103375.53;5014048;28;20304;-88
2022/03/26 07:50:48;;;;;;;42.28;33.28;;;;;;;15.80;40.64;103371.88;5014061;28;20036;-70
2022/03/26 07:53:14;;;;;;;45.53;35.42;;;;;;;15.85;40.88;103376.50;5014043;28;20084;-70
2022/03/26 07:55:39;;;;;;;48.80;34.65;;;;;;;16.09;40.69;103394.00;5014125;28;20022;-71
2022/03/26 07:58:05;;;;;;;47.88;36.17;;;;;;;16.39;40.22;103381.09;5014279;28;20033;-91
2022/03/26 08:00:31;;;;;;;54.95;39.10;;;;;;;16.57;40.14;103374.88;5014362;28;20038;-71
2022/03/26 08:02:56;;;;;;;57.42;39.90;;;;;;;16.73;40.30;103380.28;5014304;28;20036;-72
2022/03/26 08:05:22;;;;;;;78.18;47.92;;;;;;;16.94;40.18;103375.38;5014079;28;20030;-72
2022/03/26 08:07:48;;;;;;;55.15;41.15;;;;;;;17.12;40.31;103378.19;5012646;28;20030;-72
2022/03/26 08:10:13;;;;;;;51.03;39.03;;;;;;;17.19;40.24;103377.84;5013414;28;20491;-71
2022/03/26 08:12:39;;;;;;;57.80;40.08;;;;;;;17.25;40.45;103382.22;5013644;28;20034;-71
2022/03/26 08:15:05;;;;;;;55.30;40.38;;;;;;;17.37;40.61;103376.25;5013703;28;20026;-71
2022/03/26 08:17:31;;;;;;;53.33;40.55;;;;;;;17.55;40.91;103381.00;5013491;28;20034;-72
2022/03/26 08:19:57;;;;;;;57.97;42.03;;;;;;;17.65;40.83;103374.50;5013651;28;20479;-71
2022/03/26 08:22:23;;;;;;;56.20;40.75;;;;;;;17.73;41.08;103376.63;5013561;28;20030;-70
2022/03/26 08:24:48;;;;;;;59.40;44.05;;;;;;;17.88;41.02;103378.34;5013398;28;20100;-70
2022/03/26 08:27:14;;;;;;;66.22;44.63;;;;;;;18.15;40.97;103380.47;5012038;28;20026;-70
2022/03/26 08:29:40;;;;;;;61.50;44.75;;;;;;;18.24;41.04;103386.94;5015528;28;20029;-71
2022/03/26 08:32:07;;;;;;;69.18;49.55;;;;;;;18.38;41.41;103387.00;5029516;28;20033;-71
2022/03/26 08:34:32;;;;;;;116.93;66.38;;;;;;;18.56;41.55;103388.91;5032486;28;20045;-70
2022/03/26 08:36:58;;;;;;;129.75;73.80;;;;;;;18.78;42.31;103391.84;5033244;28;20033;-71
2022/03/26 08:39:24;;;;;;;127.03;76.78;;;;;;;19.10;42.45;103381.81;5032915;28;20057;-72
2022/03/26 08:41:50;;;;;;;122.88;72.80;;;;;;;19.39;42.36;103389.84;5034128;28;20028;-73
2022/03/26 08:44:15;;;;;;;114.22;73.47;;;;;;;19.51;42.81;103387.38;5036523;28;20028;-73
2022/03/26 08:46:41;;;;;;;113.90;72.05;;;;;;;19.47;43.26;103393.84;5036462;28;20100;-72
2022/03/26 08:49:07;;;;;;;115.28;70.63;;;;;;;19.66;43.37;103398.16;5036142;28;20037;-74
2022/03/26 08:51:33;;;;;;;118.18;71.65;;;;;;;19.62;43.79;103388.00;5036800;28;20024;-74
2022/03/26 08:53:58;;;;;;;100.65;66.18;;;;;;;19.59;44.59;103396.94;5040401;28;20082;-82
2022/03/26 08:56:24;;;;;;;112.28;67.32;;;;;;;19.86;43.93;103387.72;5037947;28;20021;-73
2022/03/26 08:58:49;;;;;;;103.20;66.88;;;;;;;19.92;44.01;103392.84;5017002;28;20037;-73
2022/03/26 09:01:15;;;;;;;110.57;66.05;;;;;;;19.80;44.44;103395.38;5025623;28;20036;-84
2022/03/26 09:03:43;;;;;;;101.95;63.97;;;;;;;19.85;44.77;103394.41;5024448;28;20026;-73
2022/03/26 09:06:09;;;;;;;103.22;61.80;;;;;;;19.58;45.44;103403.63;5027938;28;20079;-73
2022/03/26 09:08:35;;;;;;;88.90;60.17;;;;;;;19.74;45.22;103401.34;5026561;28;20029;-91
2022/03/26 09:11:03;;;;;;;91.10;59.58;;;;;;;19.79;45.31;103396.47;5018023;28;20025;-91
2022/03/26 09:13:29;;;;;;;91.68;59.40;;;;;;;19.72;45.55;103400.81;5037444;28;20418;-72
2022/03/26 09:15:54;;;;;;;90.78;56.25;;;;;;;20.02;44.85;103396.50;5031647;28;20033;-90
2022/03/26 09:18:22;;;;;;;90.25;58.75;;;;;;;20.31;44.08;103394.16;5032359;28;20064;-84
2022/03/26 09:20:48;;;;;;;85.55;56.78;;;;;;;20.44;43.98;103392.47;5031981;28;20059;-73
2022/03/26 09:23:14;;;;;;;90.97;58.03;;;;;;;20.33;44.30;103403.00;5034136;28;20077;-73
2022/03/26 09:25:41;;;;;;;82.53;55.20;;;;;;;20.53;43.99;103395.31;5018510;28;20037;-73
2022/03/26 09:28:08;;;;;;;86.47;57.63;;;;;;;20.53;43.96;103407.25;5036538;28;20036;-73
2022/03/26 09:30:33;;;;;;;84.43;55.97;;;;;;;20.59;43.76;103405.16;5036264;28;20084;-73
2022/03/26 09:33:00;;;;;;;84.80;56.95;;;;;;;20.12;44.89;103407.41;5036278;28;20091;-75
2022/03/26 09:35:26;;;;;;;78.38;55.95;;;;;;;20.17;44.71;103408.06;5037125;28;20388;-85
2022/03/26 09:37:53;;;;;;;81.30;57.33;;;;;;;20.12;45.10;103399.88;5035301;28;20468;-87
2022/03/26 09:40:22;;;;;;;86.50;56.75;;;;;;;20.17;45.01;103410.03;5036512;28;20172;-72
2022/03/26 09:42:49;;;;;;;77.53;51.30;;;;;;;20.33;44.51;103403.00;5036121;28;20033;-73
2022/03/26 09:45:15;;;;;;;79.57;53.22;;;;;;;20.12;44.96;103410.19;5036046;28;20022;-73
2022/03/26 09:47:41;;;;;;;79.38;53.28;;;;;;;20.36;44.79;103407.09;5036010;28;20026;-73
2022/03/26 09:50:08;;;;;;;77.22;53.97;;;;;;;20.39;44.54;103409.22;5018398;28;20475;-76
2022/03/26 09:52:35;;;;;;;84.10;54.97;;;;;;;20.35;44.58;103411.81;5029216;28;20056;-74
2022/03/26 09:55:03;;;;;;;75.00;52.08;;;;;;;20.41;44.14;103405.03;5034149;28;20021;-73
2022/03/26 09:57:29;;;;;;;77.10;52.90;;;;;;;20.13;44.68;103409.84;5034533;28;20022;-76
2022/03/26 09:59:56;;;;;;;71.63;51.50;;;;;;;20.10;44.60;103404.09;5032043;28;20150;-74
2022/03/26 10:02:21;;;;;;;75.53;51.50;;;;;;;20.33;44.12;103408.56;5034960;28;20013;-73
2022/03/26 10:04:47;;;;;;;72.82;50.75;;;;;;;20.20;44.41;103401.09;5034791;28;20495;-74
2022/03/26 10:07:13;;;;;;;82.97;56.40;;;;;;;20.48;43.63;103402.66;5033372;28;21514;-74
2022/03/26 10:09:47;;;;;;;87.13;52.53;;;;;;;20.61;43.72;103403.69;5032977;28;20033;-76
2022/03/26 10:12:18;;;;;;;65.88;49.65;;;;;;;20.69;43.30;103408.47;5035090;28;20026;-86
2022/03/26 10:14:48;;;;;;;70.80;49.03;;;;;;;20.45;43.00;103406.03;5036462;28;20021;-86
2022/03/26 10:17:23;;;;;;;73.43;50.78;;;;;;;21.13;42.11;103408.69;5024774;28;20068;-73
2022/03/26 10:19:49;;;;;;;70.05;50.58;;;;;;;21.20;41.78;103409.06;4998899;28;20485;-73
2022/03/26 10:22:28;;;;;;;72.82;50.28;;;;;;;21.09;41.81;103414.09;5015631;28;20038;-73
2022/03/26 10:24:55;;;;;;;76.63;50.03;;;;;;;21.41;41.15;103404.59;5016171;28;20029;-72
2022/03/26 10:27:20;;;;;;;75.15;51.00;;;;;;;21.54;41.10;103403.66;5015872;28;20093;-72
2022/03/26 10:29:57;;;;;;;69.38;49.40;;;;;;;21.64;40.99;103404.47;5015587;28;20061;-86
2022/03/26 10:32:44;;;;;;;64.70;46.58;;;;;;;21.53;40.48;103407.53;4998123;28;20037;-72
2022/03/26 10:35:10;;;;;;;73.53;48.00;;;;;;;21.75;40.39;103408.56;5032528;28;20523;-74
2022/03/26 10:37:46;;;;;;;66.72;48.50;;;;;;;21.70;40.49;103412.34;5010518;28;20026;-72
2022/03/26 10:40:26;;;;;;;66.63;48.60;;;;;;;21.86;40.22;103404.34;5024563;28;20214;-73
2022/03/26 10:43:13;;;;;;;68.90;47.53;;;;;;;21.80;40.13;103409.25;5037138;28;20126;-72
2022/03/26 10:45:53;;;;;;;66.15;46.60;;;;;;;21.93;39.51;103404.69;5025148;28;20619;-83
2022/03/26 10:48:30;;;;;;;64.43;46.83;;;;;;;21.88;39.96;103407.63;5035680;28;20103;-74
2022/03/26 10:50:57;;;;;;;74.88;48.45;;;;;;;22.12;39.63;103407.97;5035493;28;20384;-73
2022/03/26 10:53:39;;;;;;;68.88;47.17;;;;;;;22.01;39.70;103405.84;5035471;28;20471;-87
2022/03/26 10:56:08;;;;;;;61.35;44.70;;;;;;;22.02;39.57;103408.28;5034795;28;20076;-87
2022/03/26 10:58:35;;;;;;;60.10;43.95;;;;;;;21.75;39.70;103412.19;5033142;28;20033;-72
2022/03/26 11:01:01;;;;;;;61.10;45.15;;;;;;;21.58;39.92;103409.38;5033141;28;20391;-72
2022/03/26 11:03:26;;;;;;;63.08;46.05;;;;;;;21.88;39.54;103402.06;5033529;28;20033;-71
2022/03/26 11:05:54;;;;;;;59.30;45.13;;;;;;;21.93;39.56;103410.25;5033290;28;20026;-72
2022/03/26 11:08:20;;;;;;;65.55;48.35;;;;;;;22.16;39.45;103408.16;5033271;28;20026;-72